createdAt,value
2023-03-02T00:02:03.428Z,3.63
2023-03-02T00:04:46.493Z,3.73
2023-03-02T00:07:22.413Z,3.43
2023-03-02T00:09:50.141Z,3.80
2023-03-02T00:12:18.263Z,3.70
2023-03-02T00:14:45.371Z,4.10
2023-03-02T00:17:12.370Z,4.20
2023-03-02T00:19:39.518Z,3.80
2023-03-02T00:22:06.596Z,4.30
2023-03-02T00:24:33.799Z,3.70
2023-03-02T00:27:01.216Z,3.60
2023-03-02T00:29:28.977Z,3.60
2023-03-02T00:31:57.194Z,3.70
2023-03-02T00:34:25.631Z,3.80
2023-03-02T00:36:52.040Z,3.73
2023-03-02T00:39:20.259Z,3.90
2023-03-02T00:41:48.212Z,3.80
2023-03-02T00:44:17.630Z,3.87
2023-03-02T00:46:45.122Z,3.70
2023-03-02T00:49:12.626Z,3.63
2023-03-02T00:51:40.425Z,3.47
2023-03-02T00:54:08.635Z,3.40
2023-03-02T00:56:36.876Z,3.80
2023-03-02T00:59:26.694Z,3.80
2023-03-02T01:01:57.686Z,3.70
2023-03-02T01:04:30.523Z,3.60
2023-03-02T01:06:58.072Z,3.50
2023-03-02T01:09:24.733Z,3.50
2023-03-02T01:11:52.570Z,3.40
2023-03-02T01:14:20.858Z,3.40
2023-03-02T01:16:48.438Z,3.50
2023-03-02T01:19:15.774Z,3.40
2023-03-02T01:21:43.869Z,3.67
2023-03-02T01:24:12.120Z,3.60
2023-03-02T01:26:39.448Z,3.40
2023-03-02T01:29:07.058Z,3.50
2023-03-02T01:31:35.430Z,3.90
2023-03-02T01:34:03.921Z,3.80
2023-03-02T01:36:33.918Z,4.17
2023-03-02T01:39:04.344Z,3.33
2023-03-02T01:41:33.521Z,3.50
2023-03-02T01:44:48.412Z,3.40
2023-03-02T01:47:36.430Z,3.50
2023-03-02T01:50:23.469Z,3.60
2023-03-02T01:52:49.999Z,3.70
2023-03-02T01:55:25.227Z,3.60
2023-03-02T01:57:54.428Z,3.90
2023-03-02T02:00:31.198Z,3.77
2023-03-02T02:03:08.191Z,3.50
2023-03-02T02:05:39.807Z,3.57
2023-03-02T02:08:31.042Z,3.60
2023-03-02T02:10:59.278Z,3.70
2023-03-02T02:13:35.940Z,3.40
2023-03-02T02:16:08.008Z,3.60
2023-03-02T02:18:56.301Z,3.40
2023-03-02T02:21:39.426Z,3.70
2023-03-02T02:27:02.231Z,3.40
2023-03-02T02:29:47.629Z,3.57
2023-03-02T02:32:26.505Z,3.70
2023-03-02T02:35:33.098Z,3.60
2023-03-02T02:38:04.736Z,3.87
2023-03-02T02:40:58.094Z,4.03
2023-03-02T02:43:24.689Z,3.83
2023-03-02T02:45:53.332Z,3.70
2023-03-02T02:48:23.236Z,3.70
2023-03-02T02:50:59.705Z,3.50
2023-03-02T03:00:17.478Z,3.60
2023-03-02T03:02:45.704Z,3.50
2023-03-02T03:05:16.893Z,3.80
2023-03-02T03:07:44.614Z,3.43
2023-03-02T03:10:29.506Z,3.50
2023-03-02T03:12:55.659Z,3.40
2023-03-02T03:15:23.778Z,3.60
2023-03-02T03:17:57.259Z,3.33
2023-03-02T03:20:25.758Z,3.70
2023-03-02T03:22:54.478Z,3.67
2023-03-02T03:25:25.969Z,3.77
2023-03-02T03:27:54.070Z,3.47
2023-03-02T03:30:24.487Z,3.70
2023-03-02T03:32:55.154Z,3.40
2023-03-02T03:35:23.590Z,3.20
2023-03-02T03:37:51.827Z,3.40
2023-03-02T03:40:20.378Z,3.43
2023-03-02T03:42:51.336Z,3.20
2023-03-02T03:45:21.794Z,3.70
2023-03-02T03:47:58.187Z,3.60
2023-03-02T03:50:26.131Z,3.60
2023-03-02T03:53:06.210Z,3.83
2023-03-02T03:55:46.686Z,3.73
2023-03-02T04:01:49.816Z,3.60
2023-03-02T04:04:23.697Z,3.70
2023-03-02T04:07:00.792Z,3.40
2023-03-02T04:09:45.089Z,3.43
2023-03-02T04:13:49.445Z,3.80
2023-03-02T04:16:38.447Z,3.60
2023-03-02T04:19:08.831Z,3.53
2023-03-02T04:21:41.421Z,3.90
2023-03-02T04:24:23.352Z,3.50
2023-03-02T04:26:57.536Z,3.27
2023-03-02T04:29:54.953Z,3.47
2023-03-02T04:32:21.469Z,3.47
2023-03-02T04:34:48.007Z,3.33
2023-03-02T04:37:16.841Z,3.50
2023-03-02T04:39:47.157Z,3.60
2023-03-02T04:42:13.662Z,3.53
2023-03-02T04:45:08.872Z,3.30
2023-03-02T04:47:47.315Z,3.40
2023-03-02T04:50:13.900Z,3.60
2023-03-02T04:52:41.168Z,3.40
2023-03-02T04:55:09.529Z,3.50
2023-03-02T04:57:36.223Z,3.40
2023-03-02T05:00:04.866Z,3.50
2023-03-02T05:02:31.720Z,3.40
2023-03-02T05:04:58.602Z,3.57
2023-03-02T05:07:25.791Z,3.60
2023-03-02T05:09:52.405Z,3.70
2023-03-02T05:12:21.064Z,3.40
2023-03-02T05:15:57.599Z,3.83
2023-03-02T05:18:41.404Z,3.50
2023-03-02T05:21:08.576Z,3.50
2023-03-02T05:23:35.088Z,3.50
2023-03-02T05:26:01.646Z,3.33
2023-03-02T05:28:34.128Z,3.23
2023-03-02T05:31:01.939Z,3.30
2023-03-02T05:33:46.944Z,3.50
2023-03-02T05:36:13.050Z,3.60
2023-03-02T05:38:39.954Z,3.50
2023-03-02T05:41:06.413Z,3.67
2023-03-02T05:43:32.934Z,3.37
2023-03-02T05:45:59.866Z,3.50
2023-03-02T05:48:30.604Z,3.70
2023-03-02T05:50:57.180Z,3.90
2023-03-02T05:53:42.079Z,4.00
2023-03-02T05:56:27.788Z,3.90
2023-03-02T05:59:13.060Z,4.40
2023-03-02T06:01:58.877Z,4.23
2023-03-02T06:04:45.598Z,3.80
2023-03-02T06:07:30.485Z,3.80
2023-03-02T06:10:16.971Z,4.00
2023-03-02T06:12:45.759Z,3.73
2023-03-02T06:15:11.861Z,9.67
2023-03-02T06:17:38.338Z,11.43
2023-03-02T06:20:10.280Z,9.93
2023-03-02T06:22:55.128Z,6.20
2023-03-02T06:25:43.956Z,6.47
2023-03-02T06:28:28.371Z,6.73
2023-03-02T06:31:13.309Z,62.70
2023-03-02T06:33:58.576Z,4.93
2023-03-02T06:36:43.941Z,3.00
2023-03-02T06:39:29.807Z,3.10
2023-03-02T06:41:56.061Z,2.80
2023-03-02T06:44:22.697Z,2.80
2023-03-02T06:47:07.357Z,2.50
2023-03-02T06:49:35.536Z,2.93
2023-03-02T06:52:01.870Z,2.53
2023-03-02T06:54:28.553Z,2.80
2023-03-02T06:56:56.966Z,2.75
2023-03-02T06:59:23.214Z,2.97
2023-03-02T07:01:50.055Z,3.20
2023-03-02T07:04:16.247Z,3.30
2023-03-02T07:06:42.909Z,3.42
2023-03-02T07:09:09.042Z,2.70
2023-03-02T07:11:35.314Z,3.05
2023-03-02T07:14:01.493Z,3.00
2023-03-02T07:16:28.690Z,3.20
2023-03-02T07:18:54.794Z,3.30
2023-03-02T07:21:20.907Z,3.15
2023-03-02T07:23:47.042Z,3.40
2023-03-02T07:26:13.194Z,3.30
2023-03-02T07:28:41.927Z,3.30
2023-03-02T07:31:09.004Z,3.20
2023-03-02T07:33:36.717Z,3.30
2023-03-02T07:36:03.460Z,3.40
2023-03-02T07:38:30.224Z,3.35
2023-03-02T07:40:57.054Z,3.03
2023-03-02T07:43:28.652Z,3.87
2023-03-02T07:45:54.907Z,4.05
2023-03-02T07:48:22.729Z,4.00
2023-03-02T07:50:48.938Z,3.90
2023-03-02T07:53:15.160Z,3.50
2023-03-02T07:55:42.098Z,3.50
2023-03-02T07:58:08.302Z,3.35
2023-03-02T08:00:36.315Z,3.28
2023-03-02T08:03:03.009Z,3.00
2023-03-02T08:05:30.143Z,2.83
2023-03-02T08:07:56.833Z,2.75
2023-03-02T08:10:23.253Z,2.90
2023-03-02T08:12:49.878Z,2.62
2023-03-02T08:15:16.304Z,3.05
2023-03-02T08:17:42.561Z,3.30
2023-03-02T08:20:10.178Z,3.00
2023-03-02T08:22:36.448Z,3.60
2023-03-02T08:25:03.432Z,3.78
2023-03-02T08:27:30.641Z,3.60
2023-03-02T08:29:56.807Z,5.90
2023-03-02T08:32:25.797Z,4.50
2023-03-02T08:34:53.046Z,4.35
2023-03-02T08:37:19.551Z,4.53
2023-03-02T08:39:46.719Z,4.22
2023-03-02T08:42:14.179Z,4.12
2023-03-02T08:44:41.907Z,4.43
2023-03-02T08:47:08.973Z,3.78
2023-03-02T08:49:37.651Z,3.10
2023-03-02T08:52:04.726Z,2.60
2023-03-02T08:54:34.105Z,2.60
2023-03-02T08:57:02.264Z,2.60
2023-03-02T08:59:29.747Z,2.60
2023-03-02T09:01:58.646Z,2.62
2023-03-02T09:04:27.362Z,2.85
2023-03-02T09:06:54.483Z,3.15
2023-03-02T09:09:20.972Z,3.53
2023-03-02T09:11:48.837Z,3.72
2023-03-02T09:14:15.156Z,3.80
2023-03-02T09:16:42.336Z,3.80
2023-03-02T09:19:12.918Z,3.40
2023-03-02T09:21:41.777Z,3.15
2023-03-02T09:24:11.144Z,3.00
2023-03-02T09:26:39.334Z,2.75
2023-03-02T09:29:06.991Z,3.03
2023-03-02T09:31:38.790Z,3.00
2023-03-02T09:34:05.788Z,2.92
2023-03-02T09:36:33.873Z,2.97
2023-03-02T09:39:00.191Z,2.80
2023-03-02T09:42:04.032Z,3.00
2023-03-02T09:45:02.408Z,2.72
2023-03-02T09:47:56.291Z,3.00
2023-03-02T09:54:13.871Z,3.33
2023-03-02T09:57:25.817Z,3.22
2023-03-02T10:00:06.826Z,3.53
2023-03-02T10:03:11.448Z,3.55
2023-03-02T10:05:54.365Z,3.37
2023-03-02T10:08:27.218Z,3.70
2023-03-02T10:16:19.216Z,3.60
2023-03-02T10:19:05.266Z,2.60
2023-03-02T10:21:52.837Z,3.55
2023-03-02T10:24:44.818Z,3.62
2023-03-02T10:30:47.216Z,3.50
2023-03-02T10:33:19.312Z,3.65
2023-03-02T10:35:52.538Z,3.58
2023-03-02T10:38:25.269Z,3.60
2023-03-02T10:41:01.332Z,3.28
2023-03-02T10:43:43.611Z,2.60
2023-03-02T10:46:11.377Z,2.62
2023-03-02T10:49:49.275Z,2.80
2023-03-02T10:52:24.968Z,2.80
2023-03-02T10:55:14.371Z,2.70
2023-03-02T10:57:42.160Z,2.50
2023-03-02T11:00:22.066Z,2.50
2023-03-02T11:08:40.175Z,2.50
2023-03-02T11:11:22.535Z,2.50
2023-03-02T11:13:50.548Z,2.60
2023-03-02T11:16:28.574Z,2.80
2023-03-02T11:19:08.333Z,2.45
2023-03-02T11:28:08.782Z,2.80
2023-03-02T11:30:38.114Z,2.60
2023-03-02T11:34:18.319Z,2.70
2023-03-02T11:39:58.604Z,2.60
2023-03-02T11:42:39.688Z,2.60
2023-03-02T11:45:21.271Z,2.70
2023-03-02T11:54:28.836Z,2.50
2023-03-02T11:56:58.924Z,2.60
2023-03-02T11:59:28.898Z,2.58
2023-03-02T12:01:59.057Z,2.72
2023-03-02T12:04:34.207Z,2.60
2023-03-02T12:07:24.681Z,2.60
2023-03-02T12:10:06.394Z,2.60
2023-03-02T12:12:57.950Z,2.60
2023-03-02T12:15:44.915Z,2.62
2023-03-02T12:18:30.001Z,2.65
2023-03-02T12:21:06.201Z,2.60
2023-03-02T12:23:35.580Z,2.60
2023-03-02T12:26:47.967Z,2.60
2023-03-02T12:29:43.925Z,2.60
2023-03-02T12:35:23.861Z,2.45
2023-03-02T12:38:00.731Z,2.70
2023-03-02T12:43:30.968Z,2.65
2023-03-02T12:47:50.863Z,2.70
2023-03-02T12:50:27.935Z,2.60
2023-03-02T12:53:05.840Z,2.50
2023-03-02T12:55:34.223Z,2.50
2023-03-02T12:58:00.994Z,2.50
2023-03-02T13:00:32.984Z,2.60
2023-03-02T13:03:02.493Z,2.50
2023-03-02T13:05:31.661Z,2.40
2023-03-02T13:08:16.527Z,2.50
2023-03-02T13:10:56.985Z,2.60
2023-03-02T13:13:45.726Z,2.50
2023-03-02T13:16:27.828Z,2.60
2023-03-02T13:19:00.803Z,2.55
2023-03-02T13:21:40.965Z,2.60
2023-03-02T13:25:21.817Z,2.60
2023-03-02T13:28:21.830Z,2.50
2023-03-02T13:31:24.081Z,2.50
2023-03-02T13:33:59.140Z,2.70
2023-03-02T13:36:36.864Z,2.45
2023-03-02T13:39:28.559Z,2.53
2023-03-02T13:42:02.238Z,2.60
2023-03-02T13:44:33.810Z,2.58
2023-03-02T13:47:03.951Z,2.70
2023-03-02T13:49:39.119Z,2.70
2023-03-02T13:53:08.478Z,2.72
2023-03-02T13:55:46.134Z,2.70
2023-03-02T13:58:17.937Z,2.70
2023-03-02T14:00:52.640Z,2.87
2023-03-02T14:03:37.240Z,3.30
2023-03-02T14:06:06.141Z,3.12
2023-03-02T14:08:32.568Z,3.45
2023-03-02T14:11:03.560Z,3.25
2023-03-02T14:14:04.724Z,3.20
2023-03-02T14:16:34.698Z,3.00
2023-03-02T14:19:04.717Z,3.08
2023-03-02T14:21:32.056Z,3.10
2023-03-02T14:24:07.286Z,2.97
2023-03-02T14:26:43.394Z,2.87
2023-03-02T14:29:56.729Z,3.10
2023-03-02T14:32:29.261Z,2.70
2023-03-02T14:34:58.039Z,2.70
2023-03-02T14:37:30.151Z,2.70
2023-03-02T14:40:00.218Z,2.60
2023-03-02T14:42:28.042Z,2.70
2023-03-02T14:44:55.569Z,2.70
2023-03-02T14:47:29.452Z,2.70
2023-03-02T14:49:56.231Z,2.55
2023-03-02T14:52:48.426Z,2.60
2023-03-02T14:55:31.214Z,2.50
2023-03-02T14:58:28.306Z,2.50
2023-03-02T15:00:57.167Z,2.60
2023-03-02T15:03:28.680Z,2.47
2023-03-02T15:06:01.507Z,2.45
2023-03-02T15:08:29.383Z,2.35
2023-03-02T15:10:57.232Z,2.75
2023-03-02T15:13:32.225Z,2.67
2023-03-02T15:15:58.607Z,2.50
2023-03-02T15:18:30.559Z,2.70
2023-03-02T15:20:59.499Z,2.60
2023-03-02T15:23:29.312Z,2.50
2023-03-02T15:26:02.609Z,2.60
2023-03-02T15:28:30.012Z,2.45
2023-03-02T15:31:04.212Z,2.45
2023-03-02T15:33:43.705Z,2.60
2023-03-02T15:36:13.946Z,2.50
2023-03-02T15:38:40.826Z,2.60
2023-03-02T15:41:23.849Z,2.55
2023-03-02T15:43:52.212Z,2.40
2023-03-02T15:46:25.688Z,2.60
2023-03-02T15:48:55.315Z,2.50
2023-03-02T15:51:21.743Z,2.50
2023-03-02T15:53:48.374Z,2.60
2023-03-02T15:56:17.322Z,2.78
2023-03-02T15:58:59.731Z,2.62
2023-03-02T16:01:29.382Z,2.92
2023-03-02T16:03:59.833Z,2.90
2023-03-02T16:06:31.864Z,2.60
2023-03-02T16:09:10.576Z,2.60
2023-03-02T16:11:40.231Z,2.50
2023-03-02T16:14:07.837Z,2.70
2023-03-02T16:16:34.455Z,2.65
2023-03-02T16:19:14.551Z,2.60
2023-03-02T16:21:44.557Z,2.70
2023-03-02T16:24:17.790Z,2.77
2023-03-02T16:26:50.075Z,2.90
2023-03-02T16:29:20.041Z,2.80
2023-03-02T16:31:48.562Z,2.90
2023-03-02T16:34:18.436Z,3.00
2023-03-02T16:36:46.843Z,3.00
2023-03-02T16:39:21.866Z,3.10
2023-03-02T16:41:51.182Z,3.03
2023-03-02T16:44:22.466Z,3.00
2023-03-02T16:46:57.442Z,3.00
2023-03-02T16:49:28.076Z,3.00
2023-03-02T16:51:59.007Z,2.90
2023-03-02T16:54:30.793Z,2.93
2023-03-02T16:56:57.497Z,2.60
2023-03-02T16:59:26.832Z,2.93
2023-03-02T17:01:57.410Z,2.62
2023-03-02T17:04:28.420Z,3.03
2023-03-02T17:07:00.991Z,3.00
2023-03-02T17:09:30.142Z,3.00
2023-03-02T17:11:58.306Z,2.90
2023-03-02T17:14:26.436Z,2.87
2023-03-02T17:16:54.650Z,3.00
2023-03-02T17:19:28.672Z,3.10
2023-03-02T17:22:00.428Z,2.87
2023-03-02T17:24:33.524Z,3.10
2023-03-02T17:27:00.862Z,2.85
2023-03-02T17:29:32.792Z,2.90
2023-03-02T17:32:01.248Z,3.00
2023-03-02T17:34:34.683Z,3.00
2023-03-02T17:37:04.834Z,3.20
2023-03-02T17:39:36.473Z,3.07
2023-03-02T17:42:05.856Z,2.90
2023-03-02T17:44:38.790Z,3.20
2023-03-02T17:47:10.550Z,3.10
2023-03-02T17:49:41.559Z,3.15
2023-03-02T17:52:07.984Z,3.30
2023-03-02T17:54:39.303Z,3.30
2023-03-02T17:57:09.527Z,3.00
2023-03-02T17:59:36.301Z,3.10
2023-03-02T18:02:04.270Z,3.40
2023-03-02T18:04:31.324Z,3.10
2023-03-02T18:06:58.194Z,3.07
2023-03-02T18:09:29.797Z,3.20
2023-03-02T18:12:00.674Z,3.47
2023-03-02T18:14:30.653Z,3.30
2023-03-02T18:16:57.750Z,3.40
2023-03-02T18:19:38.844Z,3.20
2023-03-02T18:22:05.920Z,3.30
2023-03-02T18:24:36.327Z,3.73
2023-03-02T18:27:04.662Z,3.60
2023-03-02T18:29:35.248Z,3.20
2023-03-02T18:32:04.750Z,2.90
2023-03-02T18:34:34.146Z,3.27
2023-03-02T18:37:04.918Z,3.30
2023-03-02T18:39:35.774Z,3.70
2023-03-02T18:42:02.614Z,3.30
2023-03-02T18:44:33.583Z,3.55
2023-03-02T18:47:02.436Z,3.70
2023-03-02T18:49:39.888Z,3.80
2023-03-02T18:52:09.972Z,3.35
2023-03-02T18:54:37.879Z,3.93
2023-03-02T18:57:12.775Z,4.00
2023-03-02T18:59:46.197Z,3.40
2023-03-02T19:02:15.493Z,3.83
2023-03-02T19:04:49.794Z,4.37
2023-03-02T19:07:20.144Z,4.60
2023-03-02T19:09:56.692Z,3.37
2023-03-02T19:12:34.253Z,3.67
2023-03-02T19:15:03.468Z,4.20
2023-03-02T19:17:41.312Z,3.70
2023-03-02T19:20:19.029Z,3.78
2023-03-02T19:22:48.216Z,3.90
2023-03-02T19:25:17.201Z,3.70
2023-03-02T19:27:50.176Z,3.80
2023-03-02T19:30:26.072Z,3.80
2023-03-02T19:32:55.198Z,4.00
2023-03-02T19:35:31.046Z,3.83
2023-03-02T19:38:00.823Z,3.23
2023-03-02T19:40:36.003Z,3.23
2023-03-02T19:43:02.995Z,3.80
2023-03-02T19:45:33.262Z,3.40
2023-03-02T19:47:59.635Z,3.63
2023-03-02T19:50:28.232Z,3.97
2023-03-02T19:52:57.960Z,3.23
2023-03-02T19:55:25.107Z,3.42
2023-03-02T19:57:58.959Z,3.80
2023-03-02T20:00:28.233Z,3.67
2023-03-02T20:02:58.332Z,4.18
2023-03-02T20:05:29.065Z,4.15
2023-03-02T20:07:57.797Z,4.40
2023-03-02T20:10:30.946Z,3.57
2023-03-02T20:12:59.306Z,3.90
2023-03-02T20:15:29.612Z,3.60
2023-03-02T20:17:58.201Z,4.40
2023-03-02T20:20:28.563Z,4.23
2023-03-02T20:23:00.554Z,3.60
2023-03-02T20:25:29.826Z,4.17
2023-03-02T20:27:58.984Z,3.60
2023-03-02T20:30:41.644Z,4.70
2023-03-02T20:33:12.608Z,4.53
2023-03-02T20:35:42.210Z,4.37
2023-03-02T20:38:12.356Z,6.30
2023-03-02T20:40:44.206Z,5.97
2023-03-02T20:43:15.386Z,5.73
2023-03-02T20:45:44.192Z,5.37
2023-03-02T20:48:14.654Z,5.30
2023-03-02T20:50:43.999Z,6.50
2023-03-02T20:53:11.222Z,5.40
2023-03-02T20:55:39.052Z,5.90
2023-03-02T20:58:07.391Z,7.73
2023-03-02T21:00:37.218Z,14.17
2023-03-02T21:03:05.120Z,8.03
2023-03-02T21:05:33.232Z,4.97
2023-03-02T21:08:01.359Z,24.50
2023-03-02T21:10:36.430Z,4.43
2023-03-02T21:13:04.714Z,8.80
2023-03-02T21:15:32.378Z,15.90
2023-03-02T21:18:02.390Z,10.87
2023-03-02T21:20:31.369Z,14.80
2023-03-02T21:22:59.209Z,16.47
2023-03-02T21:25:25.449Z,21.87
2023-03-02T21:27:51.754Z,17.90
2023-03-02T21:30:26.197Z,21.87
2023-03-02T21:32:53.225Z,22.13
2023-03-02T21:35:20.920Z,19.70
2023-03-02T21:37:52.104Z,20.63
2023-03-02T21:40:21.864Z,9.73
2023-03-02T21:42:51.661Z,14.95
2023-03-02T21:45:18.563Z,18.17
2023-03-02T21:47:46.368Z,38.07
2023-03-02T21:50:24.307Z,39.05
2023-03-02T21:52:59.366Z,36.70
2023-03-02T21:55:29.932Z,38.83
2023-03-02T21:57:57.084Z,39.37
2023-03-02T22:00:26.250Z,23.60
2023-03-02T22:02:52.508Z,19.83
2023-03-02T22:05:19.285Z,8.00
2023-03-02T22:07:45.874Z,13.50
2023-03-02T22:10:28.927Z,44.40
2023-03-02T22:16:27.961Z,39.83
2023-03-02T22:18:59.089Z,30.35
2023-03-02T22:21:37.988Z,15.00
2023-03-02T22:24:38.725Z,17.13
2023-03-02T22:27:28.264Z,22.17
2023-03-02T22:29:58.370Z,11.80
2023-03-02T22:32:35.013Z,26.73
2023-03-02T22:35:23.287Z,21.77
2023-03-02T22:37:51.212Z,8.80
2023-03-02T22:40:29.062Z,15.20
2023-03-02T22:43:06.566Z,16.50
2023-03-02T22:45:32.696Z,24.03
2023-03-02T22:47:58.950Z,22.10
2023-03-02T22:50:27.615Z,39.17
2023-03-02T22:52:54.803Z,34.10
2023-03-02T22:55:38.509Z,28.30
2023-03-02T22:58:50.736Z,18.03
2023-03-02T23:01:43.892Z,17.53
2023-03-02T23:04:52.629Z,8.87
2023-03-02T23:07:20.705Z,6.90
2023-03-02T23:09:47.319Z,11.17
2023-03-02T23:12:29.032Z,18.03
2023-03-02T23:14:56.766Z,23.03
2023-03-02T23:17:37.918Z,12.70
2023-03-02T23:20:09.941Z,12.80
2023-03-02T23:22:38.583Z,15.80
2023-03-02T23:25:06.003Z,13.40
2023-03-02T23:27:32.283Z,18.17
2023-03-02T23:29:58.488Z,14.03
2023-03-02T23:32:25.128Z,12.00
2023-03-02T23:34:52.587Z,10.67
2023-03-02T23:37:18.744Z,12.63
2023-03-02T23:39:46.236Z,21.67
2023-03-02T23:42:13.893Z,23.27
2023-03-02T23:44:40.381Z,9.20
2023-03-02T23:47:07.000Z,16.17
2023-03-02T23:49:33.727Z,22.37
2023-03-02T23:52:00.085Z,13.70
2023-03-02T23:54:26.674Z,12.03
2023-03-02T23:56:53.215Z,21.10
2023-03-02T23:59:19.745Z,13.20
